Time;durP1;ratioP1;P1;durP2;ratioP2;P2;SDS_P1;SDS_P2;PMS_P1;PMS_P2;Temp;Humidity;BMP_temperature;BMP_pressure;BME280_temperature;BME280_humidity;BME280_pressure;Samples;Min_cycle;Max_cycle;Signal;HPM_P1;HPM_P2
2023/12/27 00:00:36;;;;;;;8.48;6.55;;;;;;;-145.63;100.00;61273.97;5062554;28;20028;-64
2023/12/27 00:03:02;;;;;;;7.78;6.28;;;;;;;-145.63;100.00;61273.97;5043367;28;20026;-64
2023/12/27 00:05:28;;;;;;;7.57;6.47;;;;;;;-145.63;100.00;61273.97;5059107;28;20115;-64
2023/12/27 00:07:54;;;;;;;8.05;6.10;;;;;;;-145.63;100.00;61273.97;5063066;28;20029;-63
2023/12/27 00:10:20;;;;;;;8.27;6.85;;;;;;;-145.63;100.00;61273.97;5056185;28;20321;-64
2023/12/27 00:12:45;;;;;;;10.15;6.60;;;;;;;-145.63;100.00;61273.97;5059899;28;20336;-63
2023/12/27 00:15:11;;;;;;;8.70;7.22;;;;;;;-145.63;100.00;61273.97;5063095;28;20033;-64
2023/12/27 00:17:37;;;;;;;8.23;6.63;;;;;;;-145.63;100.00;61273.97;5062059;28;20036;-62
2023/12/27 00:20:03;;;;;;;8.00;7.07;;;;;;;-145.63;100.00;61273.97;5050377;28;20025;-63
2023/12/27 00:22:30;;;;;;;8.20;6.75;;;;;;;-145.63;100.00;61273.97;5053241;28;20045;-64
2023/12/27 00:24:56;;;;;;;9.27;7.15;;;;;;;-145.63;100.00;61273.97;5045912;28;20040;-62
2023/12/27 00:27:24;;;;;;;10.27;7.95;;;;;;;-145.63;100.00;61273.97;5062951;28;20041;-64
2023/12/27 00:29:50;;;;;;;10.50;7.63;;;;;;;-145.63;100.00;61273.97;5062555;28;20029;-63
2023/12/27 00:32:15;;;;;;;9.77;8.27;;;;;;;-145.63;100.00;61273.97;5048118;28;20075;-64
2023/12/27 00:34:41;;;;;;;9.73;7.25;;;;;;;-145.63;100.00;61273.97;5051952;28;20040;-63
2023/12/27 00:37:08;;;;;;;10.20;8.00;;;;;;;-145.63;100.00;61273.97;5061339;28;20032;-64
2023/12/27 00:39:34;;;;;;;9.10;6.50;;;;;;;-145.63;100.00;61273.97;5062382;28;20043;-63
2023/12/27 00:41:59;;;;;;;11.35;8.20;;;;;;;-145.63;100.00;61273.97;5042659;28;20029;-62
2023/12/27 00:44:25;;;;;;;8.07;6.82;;;;;;;-145.63;100.00;61273.97;5057494;28;20060;-62
2023/12/27 00:46:51;;;;;;;9.98;7.60;;;;;;;-145.63;100.00;61273.97;5051719;28;20302;-63
2023/12/27 00:49:17;;;;;;;9.20;7.60;;;;;;;-145.63;100.00;61273.97;5048125;28;20316;-62
2023/12/27 00:51:43;;;;;;;10.73;7.40;;;;;;;-145.63;100.00;61273.97;5061026;28;20025;-63
2023/12/27 00:54:09;;;;;;;9.65;7.70;;;;;;;-145.63;100.00;61273.97;5042508;28;20033;-63
2023/12/27 00:56:35;;;;;;;9.48;8.00;;;;;;;-145.63;100.00;61273.97;5058972;28;20055;-63
2023/12/27 00:59:01;;;;;;;10.15;8.13;;;;;;;-145.63;100.00;61273.97;5062427;28;20031;-63
2023/12/27 01:01:30;;;;;;;10.65;7.95;;;;;;;-145.63;100.00;61273.97;5055232;28;20152;-63
2023/12/27 01:03:56;;;;;;;10.63;8.43;;;;;;;-145.63;100.00;61273.97;5045161;28;20337;-63
2023/12/27 01:06:22;;;;;;;10.55;8.13;;;;;;;-145.63;100.00;61273.97;5061993;28;20029;-62
2023/12/27 01:08:47;;;;;;;8.70;7.50;;;;;;;-145.63;100.00;61273.97;5062263;28;20040;-62
2023/12/27 01:11:13;;;;;;;10.63;8.15;;;;;;;-145.63;100.00;61273.97;5052807;28;20020;-62
2023/12/27 01:13:39;;;;;;;9.50;7.80;;;;;;;-145.63;100.00;61273.97;5062196;28;20029;-62
2023/12/27 01:16:05;;;;;;;10.15;7.93;;;;;;;-145.63;100.00;61273.97;5062159;28;20025;-62
2023/12/27 01:18:31;;;;;;;10.10;7.97;;;;;;;-145.63;100.00;61273.97;5060845;28;20202;-63
2023/12/27 01:20:57;;;;;;;10.50;7.80;;;;;;;-145.63;100.00;61273.97;5042760;28;20032;-62
2023/12/27 01:23:23;;;;;;;10.88;7.95;;;;;;;-145.63;100.00;61273.97;5056592;28;20029;-62
2023/12/27 01:25:48;;;;;;;9.20;7.75;;;;;;;-145.63;100.00;61273.97;5052122;28;20072;-61
2023/12/27 01:28:14;;;;;;;10.82;8.40;;;;;;;-145.63;100.00;61273.97;5048490;28;20261;-60
2023/12/27 01:30:40;;;;;;;9.15;7.72;;;;;;;-145.63;100.00;61273.97;5065817;28;20029;-61
2023/12/27 01:33:06;;;;;;;9.88;8.00;;;;;;;-145.63;100.00;61273.97;5045922;28;20021;-63
2023/12/27 01:35:31;;;;;;;10.25;8.30;;;;;;;-145.63;100.00;61273.97;5061474;28;20056;-61
2023/12/27 01:37:57;;;;;;;10.48;8.43;;;;;;;-145.63;100.00;61273.97;5065822;28;20209;-61
2023/12/27 01:40:22;;;;;;;9.00;7.53;;;;;;;-145.63;100.00;61273.97;5065621;28;20025;-62
2023/12/27 01:42:48;;;;;;;11.75;8.25;;;;;;;-145.63;100.00;61273.97;5064227;28;20210;-61
2023/12/27 01:45:14;;;;;;;12.20;9.18;;;;;;;-145.63;100.00;61273.97;5045639;28;20119;-62
2023/12/27 01:47:39;;;;;;;11.20;8.43;;;;;;;-145.63;100.00;61273.97;5062581;28;20264;-63
2023/12/27 01:50:09;;;;;;;11.30;8.60;;;;;;;-145.63;100.00;61273.97;5065756;28;20098;-63
2023/12/27 01:52:40;;;;;;;10.85;8.65;;;;;;;-145.63;100.00;61273.97;5057681;28;20025;-62
2023/12/27 01:55:10;;;;;;;11.88;8.60;;;;;;;-145.63;100.00;61273.97;5049497;28;20029;-62
2023/12/27 01:57:41;;;;;;;12.95;9.55;;;;;;;-145.63;100.00;61273.97;5065677;28;20032;-61
2023/12/27 02:00:09;;;;;;;12.35;9.70;;;;;;;-145.63;100.00;61273.97;5045687;28;20209;-61
2023/12/27 02:02:37;;;;;;;11.43;9.10;;;;;;;-145.63;100.00;61273.97;5061554;28;20056;-61
2023/12/27 02:05:03;;;;;;;12.73;9.45;;;;;;;-145.63;100.00;61273.97;5054082;28;20084;-60
2023/12/27 02:07:30;;;;;;;12.07;9.10;;;;;;;-145.63;100.00;61273.97;5054915;28;20103;-61
2023/12/27 02:09:56;;;;;;;11.25;9.07;;;;;;;-145.63;100.00;61273.97;5063304;28;20124;-61
2023/12/27 02:12:24;;;;;;;11.98;9.32;;;;;;;-145.63;100.00;61273.97;5058665;28;20025;-61
2023/12/27 02:14:50;;;;;;;11.63;9.10;;;;;;;-145.63;100.00;61273.97;5065461;28;20091;-62
2023/12/27 02:17:16;;;;;;;12.35;9.50;;;;;;;-145.63;100.00;61273.97;5051980;28;20322;-61
2023/12/27 02:19:42;;;;;;;12.40;9.07;;;;;;;-145.63;100.00;61273.97;5053635;28;20032;-64
2023/12/27 02:22:11;;;;;;;12.50;9.85;;;;;;;-145.63;100.00;61273.97;5061634;28;20073;-60
2023/12/27 02:24:37;;;;;;;11.90;9.20;;;;;;;-145.63;100.00;61273.97;5045301;28;20030;-62
2023/12/27 02:27:03;;;;;;;12.82;9.27;;;;;;;-145.63;100.00;61273.97;5064838;28;20020;-61
2023/12/27 02:29:29;;;;;;;12.80;9.85;;;;;;;-145.63;100.00;61273.97;5049928;28;20047;-61
2023/12/27 02:31:55;;;;;;;12.68;9.85;;;;;;;-145.63;100.00;61273.97;5055220;28;20029;-61
2023/12/27 02:34:21;;;;;;;13.80;9.95;;;;;;;-145.63;100.00;61273.97;5059050;28;20025;-62
2023/12/27 02:36:46;;;;;;;12.68;9.75;;;;;;;-145.63;100.00;61273.97;5045772;28;20052;-63
2023/12/27 02:39:13;;;;;;;12.18;9.35;;;;;;;-145.63;100.00;61273.97;5063948;28;20075;-62
2023/12/27 02:41:39;;;;;;;13.48;10.10;;;;;;;-145.63;100.00;61273.97;5048561;28;20033;-62
2023/12/27 02:44:05;;;;;;;14.07;9.90;;;;;;;-145.63;100.00;61273.97;5056193;28;20028;-63
2023/12/27 02:46:33;;;;;;;13.75;10.07;;;;;;;-145.63;100.00;61273.97;5057571;28;20026;-63
2023/12/27 02:48:59;;;;;;;13.07;9.85;;;;;;;-145.63;100.00;61273.97;5047858;28;20033;-64
2023/12/27 02:51:25;;;;;;;13.85;10.73;;;;;;;-145.63;100.00;61273.97;5064834;28;20324;-64
2023/12/27 02:53:50;;;;;;;14.00;10.38;;;;;;;-145.63;100.00;61273.97;5063402;28;20021;-63
2023/12/27 02:56:16;;;;;;;13.35;11.13;;;;;;;-145.63;100.00;61273.97;5064265;28;20097;-63
2023/12/27 02:58:42;;;;;;;13.93;9.95;;;;;;;-145.63;100.00;61273.97;5056244;28;20037;-63
2023/12/27 03:01:07;;;;;;;12.23;10.10;;;;;;;-145.63;100.00;61273.97;5048052;28;20035;-64
2023/12/27 03:03:33;;;;;;;12.07;9.48;;;;;;;-145.63;100.00;61273.97;5064419;28;20024;-64
2023/12/27 03:05:59;;;;;;;12.20;9.98;;;;;;;-145.63;100.00;61273.97;5045724;28;20025;-64
2023/12/27 03:08:25;;;;;;;13.57;10.82;;;;;;;-145.63;100.00;61273.97;5061218;28;20041;-64
2023/12/27 03:10:50;;;;;;;14.88;11.05;;;;;;;-145.63;100.00;61273.97;5055969;28;20033;-63
2023/12/27 03:13:16;;;;;;;12.60;10.55;;;;;;;-145.63;100.00;61273.97;5064342;28;20032;-64
2023/12/27 03:15:41;;;;;;;13.40;11.10;;;;;;;-145.63;100.00;61273.97;5064213;28;20302;-63
2023/12/27 03:18:07;;;;;;;13.90;10.10;;;;;;;-145.63;100.00;61273.97;5044375;28;20113;-64
2023/12/27 03:20:33;;;;;;;15.25;10.95;;;;;;;-145.63;100.00;61273.97;5059094;28;20036;-64
2023/12/27 03:22:58;;;;;;;12.80;9.82;;;;;;;-145.63;100.00;61273.97;5074503;28;20092;-64
2023/12/27 03:25:24;;;;;;;12.85;9.65;;;;;;;-145.63;100.00;61273.97;5078403;28;20032;-64
2023/12/27 03:27:50;;;;;;;13.48;11.23;;;;;;;-145.63;100.00;61273.97;5062090;28;20033;-64
2023/12/27 03:30:15;;;;;;;13.68;10.82;;;;;;;-145.63;100.00;61273.97;5043825;28;20029;-64
2023/12/27 03:32:41;;;;;;;13.20;10.00;;;;;;;-145.63;100.00;61273.97;5059852;28;20029;-64
2023/12/27 03:35:07;;;;;;;14.82;10.65;;;;;;;-145.63;100.00;61273.97;5052315;28;20052;-64
2023/12/27 03:37:32;;;;;;;13.10;10.60;;;;;;;-145.63;100.00;61273.97;5050200;28;20305;-64
2023/12/27 03:39:58;;;;;;;13.48;10.50;;;;;;;-145.63;100.00;61273.97;5061927;28;20055;-63
2023/12/27 03:42:24;;;;;;;14.75;10.60;;;;;;;-145.63;100.00;61273.97;5043568;28;20036;-63
2023/12/27 03:44:52;;;;;;;14.55;11.50;;;;;;;-145.63;100.00;61273.97;5060521;28;20043;-64
2023/12/27 03:47:19;;;;;;;14.40;10.55;;;;;;;-145.63;100.00;61273.97;5050645;28;20097;-63
2023/12/27 03:49:46;;;;;;;13.93;10.60;;;;;;;-145.63;100.00;61273.97;5053053;28;20059;-62
2023/12/27 03:52:11;;;;;;;13.45;10.00;;;;;;;-145.63;100.00;61273.97;5062822;28;20059;-62
2023/12/27 03:54:41;;;;;;;13.18;10.00;;;;;;;-145.63;100.00;61273.97;5063547;28;20317;-62
2023/12/27 03:57:07;;;;;;;15.95;11.40;;;;;;;-145.63;100.00;61273.97;5043920;28;20021;-62
2023/12/27 03:59:36;;;;;;;13.27;9.88;;;;;;;-145.63;100.00;61273.97;5075124;28;20055;-63
2023/12/27 04:02:02;;;;;;;13.18;10.45;;;;;;;-145.63;100.00;61273.97;5061050;28;20052;-64
2023/12/27 04:04:27;;;;;;;14.68;10.15;;;;;;;-145.63;100.00;61273.97;5062899;28;20102;-66
2023/12/27 04:06:53;;;;;;;16.88;11.32;;;;;;;-145.63;100.00;61273.97;5063151;28;20025;-64
2023/12/27 04:09:19;;;;;;;13.88;10.77;;;;;;;-145.63;100.00;61273.97;5062966;28;20029;-64
2023/12/27 04:11:45;;;;;;;15.48;10.80;;;;;;;-145.63;100.00;61273.97;5054942;28;20217;-64
2023/12/27 04:14:14;;;;;;;14.55;10.38;;;;;;;-145.63;100.00;61273.97;5062752;28;20036;-65
2023/12/27 04:16:40;;;;;;;12.95;11.20;;;;;;;-145.63;100.00;61273.97;5055665;28;20033;-65
2023/12/27 04:19:06;;;;;;;15.30;11.40;;;;;;;-145.63;100.00;61273.97;5045481;28;20172;-64
2023/12/27 04:21:31;;;;;;;15.23;10.63;;;;;;;-145.63;100.00;61273.97;5062733;28;20032;-64
2023/12/27 04:23:57;;;;;;;13.63;10.05;;;;;;;-145.63;100.00;61273.97;5045191;28;20029;-65
2023/12/27 04:26:22;;;;;;;13.95;10.18;;;;;;;-145.63;100.00;61273.97;5055446;28;20020;-63
2023/12/27 04:28:48;;;;;;;14.27;10.30;;;;;;;-145.63;100.00;61273.97;5054618;28;20032;-65
2023/12/27 04:31:14;;;;;;;12.88;9.88;;;;;;;-145.63;100.00;61273.97;5053963;28;20206;-64
2023/12/27 04:33:39;;;;;;;14.63;10.75;;;;;;;-145.63;100.00;61273.97;5062539;28;20036;-65
2023/12/27 04:36:05;;;;;;;15.50;10.45;;;;;;;-145.63;100.00;61273.97;5043670;28;20037;-64
2023/12/27 04:38:31;;;;;;;13.48;10.10;;;;;;;-145.63;100.00;61273.97;5056395;28;20039;-64
2023/12/27 04:40:56;;;;;;;16.15;10.80;;;;;;;-145.63;100.00;61273.97;5053298;28;20208;-64
2023/12/27 04:43:22;;;;;;;13.23;9.75;;;;;;;-145.63;100.00;61273.97;5046918;28;20271;-64
2023/12/27 04:45:49;;;;;;;14.13;10.05;;;;;;;-145.63;100.00;61273.97;5061129;28;20037;-64
2023/12/27 04:48:15;;;;;;;13.27;10.05;;;;;;;-145.63;100.00;61273.97;5059762;28;20309;-64
2023/12/27 04:50:41;;;;;;;15.15;10.35;;;;;;;-145.63;100.00;61273.97;5062216;28;20028;-66
2023/12/27 04:53:07;;;;;;;13.45;9.65;;;;;;;-145.63;100.00;61273.97;5062349;28;20039;-64
2023/12/27 04:55:32;;;;;;;12.38;9.90;;;;;;;-145.63;100.00;61273.97;5056450;28;20104;-64
2023/12/27 04:57:58;;;;;;;13.32;9.48;;;;;;;-145.63;100.00;61273.97;5043343;28;20028;-65
2023/12/27 05:00:24;;;;;;;14.48;9.70;;;;;;;-145.63;100.00;61273.97;5058264;28;20245;-64
2023/12/27 05:02:49;;;;;;;16.00;9.80;;;;;;;-145.63;100.00;61273.97;5055455;28;20029;-64
2023/12/27 05:05:15;;;;;;;12.00;9.68;;;;;;;-145.63;100.00;61273.97;5061927;28;20029;-64
2023/12/27 05:07:41;;;;;;;13.65;9.35;;;;;;;-145.63;100.00;61273.97;5059795;28;20025;-65
2023/12/27 05:10:07;;;;;;;13.68;9.50;;;;;;;-145.63;100.00;61273.97;5062306;28;20092;-65
2023/12/27 05:12:32;;;;;;;12.30;9.63;;;;;;;-145.63;100.00;61273.97;5061819;28;20044;-65
2023/12/27 05:14:58;;;;;;;14.55;9.52;;;;;;;-145.63;100.00;61273.97;5062057;28;20052;-66
2023/12/27 05:17:24;;;;;;;14.90;9.38;;;;;;;-145.63;100.00;61273.97;5061945;28;20311;-66
2023/12/27 05:19:49;;;;;;;12.23;9.70;;;;;;;-145.63;100.00;61273.97;5052889;28;20079;-65
2023/12/27 05:22:16;;;;;;;12.48;8.95;;;;;;;-145.63;100.00;61273.97;5053948;28;20048;-65
2023/12/27 05:24:42;;;;;;;14.43;10.32;;;;;;;-145.63;100.00;61273.97;5042214;28;20307;-65
2023/12/27 05:27:08;;;;;;;13.45;10.25;;;;;;;-145.63;100.00;61273.97;5060698;28;20025;-66
2023/12/27 05:29:34;;;;;;;16.00;11.25;;;;;;;-145.63;100.00;61273.97;5057306;28;20025;-64
2023/12/27 05:32:00;;;;;;;17.00;11.07;;;;;;;-145.63;100.00;61273.97;5062001;28;20308;-64
2023/12/27 05:34:27;;;;;;;13.52;10.45;;;;;;;-145.63;100.00;61273.97;5057244;28;20104;-65
2023/12/27 05:36:52;;;;;;;16.20;10.98;;;;;;;-145.63;100.00;61273.97;5041985;28;20040;-65
2023/12/27 05:39:18;;;;;;;14.98;10.60;;;;;;;-145.63;100.00;61273.97;5061937;28;20036;-64
2023/12/27 05:41:44;;;;;;;15.73;11.07;;;;;;;-145.63;100.00;61273.97;5046738;28;20037;-64
2023/12/27 05:44:10;;;;;;;16.70;10.65;;;;;;;-145.63;100.00;61273.97;5052349;28;20075;-64
2023/12/27 05:46:35;;;;;;;16.50;11.57;;;;;;;-145.63;100.00;61273.97;5067317;28;20063;-64
2023/12/27 05:49:01;;;;;;;14.20;9.77;;;;;;;-145.63;100.00;61273.97;5078300;28;20024;-64
2023/12/27 05:51:28;;;;;;;15.50;10.40;;;;;;;-145.63;100.00;61273.97;5061755;28;20368;-64
2023/12/27 05:53:53;;;;;;;14.55;9.70;;;;;;;-145.63;100.00;61273.97;5061764;28;20098;-65
2023/12/27 05:56:19;;;;;;;11.88;9.68;;;;;;;-145.63;100.00;61273.97;5049800;28;20282;-64
2023/12/27 05:58:45;;;;;;;12.52;9.55;;;;;;;-145.63;100.00;61273.97;5048528;28;20309;-65
2023/12/27 06:01:10;;;;;;;14.27;10.05;;;;;;;-145.63;100.00;61273.97;5061182;28;20043;-65
2023/12/27 06:03:36;;;;;;;11.60;9.40;;;;;;;-145.63;100.00;61273.97;5061240;28;20040;-64
2023/12/27 06:06:02;;;;;;;12.80;9.75;;;;;;;-145.63;100.00;61273.97;5048473;28;20036;-64
2023/12/27 06:08:28;;;;;;;14.57;10.20;;;;;;;-145.63;100.00;61273.97;5048423;28;20037;-64
2023/12/27 06:10:53;;;;;;;16.17;11.60;;;;;;;-145.63;100.00;61273.97;5049414;28;20090;-65
2023/12/27 06:13:19;;;;;;;14.02;9.93;;;;;;;-145.63;100.00;61273.97;5061240;28;20051;-64
2023/12/27 06:15:45;;;;;;;12.73;9.50;;;;;;;-145.63;100.00;61273.97;5063670;28;20032;-64
2023/12/27 06:18:10;;;;;;;12.82;9.63;;;;;;;-145.63;100.00;61273.97;5064965;28;20040;-64
2023/12/27 06:20:36;;;;;;;14.80;10.77;;;;;;;-145.63;100.00;61273.97;5064742;28;20032;-65
2023/12/27 06:23:02;;;;;;;11.60;9.55;;;;;;;-145.63;100.00;61273.97;5055769;28;20025;-64
2023/12/27 06:25:27;;;;;;;12.85;9.77;;;;;;;-145.63;100.00;61273.97;5049224;28;20025;-65
2023/12/27 06:27:54;;;;;;;16.05;10.50;;;;;;;-145.63;100.00;61273.97;5064088;28;20048;-64
2023/12/27 06:30:19;;;;;;;14.18;11.50;;;;;;;-145.63;100.00;61273.97;5064490;28;20035;-63
2023/12/27 06:32:45;;;;;;;15.35;11.38;;;;;;;-145.63;100.00;61273.97;5064198;28;20084;-64
2023/12/27 06:35:11;;;;;;;15.45;12.00;;;;;;;-145.63;100.00;61273.97;5064718;28;20049;-64
2023/12/27 06:37:36;;;;;;;15.88;11.95;;;;;;;-145.63;100.00;61273.97;5062713;28;20075;-63
2023/12/27 06:40:02;;;;;;;17.33;12.02;;;;;;;-145.63;100.00;61273.97;5064671;28;20052;-63
2023/12/27 06:42:29;;;;;;;19.15;12.45;;;;;;;-145.63;100.00;61273.97;5064660;28;20049;-62
2023/12/27 06:44:55;;;;;;;17.25;12.45;;;;;;;-145.63;100.00;61273.97;5048895;28;20143;-64
2023/12/27 06:47:21;;;;;;;16.08;12.60;;;;;;;-145.63;100.00;61273.97;5063170;28;20036;-63
2023/12/27 06:49:47;;;;;;;19.13;13.73;;;;;;;-145.63;100.00;61273.97;5064551;28;20309;-64
2023/12/27 06:52:13;;;;;;;17.60;12.85;;;;;;;-145.63;100.00;61273.97;5062152;28;20025;-63
2023/12/27 06:54:39;;;;;;;20.98;13.65;;;;;;;-145.63;100.00;61273.97;5044458;28;20345;-64
2023/12/27 06:57:05;;;;;;;19.25;13.60;;;;;;;-145.63;100.00;61273.97;5061750;28;20029;-64
2023/12/27 06:59:31;;;;;;;18.20;12.55;;;;;;;-145.63;100.00;61273.97;5064431;28;20085;-64
2023/12/27 07:01:56;;;;;;;18.65;12.77;;;;;;;-145.63;100.00;61273.97;5061271;28;20025;-63
2023/12/27 07:04:22;;;;;;;18.20;12.50;;;;;;;-145.63;100.00;61273.97;5062683;28;20037;-66
2023/12/27 07:06:48;;;;;;;16.27;11.63;;;;;;;-145.63;100.00;61273.97;5062901;28;20092;-65
2023/12/27 07:09:15;;;;;;;16.77;11.55;;;;;;;-145.63;100.00;61273.97;5063295;28;20261;-65
2023/12/27 07:11:40;;;;;;;21.58;13.07;;;;;;;-145.63;100.00;61273.97;5060850;28;20062;-63
2023/12/27 07:14:06;;;;;;;20.67;11.80;;;;;;;-145.63;100.00;61273.97;5064051;28;20032;-63
2023/12/27 07:16:33;;;;;;;17.27;12.43;;;;;;;-145.63;100.00;61273.97;5063529;28;20060;-64
2023/12/27 07:18:59;;;;;;;17.60;12.23;;;;;;;-145.63;100.00;61273.97;5062426;28;20024;-64
2023/12/27 07:21:24;;;;;;;16.92;12.95;;;;;;;-145.63;100.00;61273.97;5061665;28;20293;-63
2023/12/27 07:23:50;;;;;;;21.10;14.13;;;;;;;-145.63;100.00;61273.97;5060953;28;20217;-64
2023/12/27 07:26:16;;;;;;;20.63;12.93;;;;;;;-145.63;100.00;61273.97;5060202;28;20020;-64
2023/12/27 07:28:41;;;;;;;16.10;12.10;;;;;;;-145.63;100.00;61273.97;5062797;28;20237;-63
2023/12/27 07:31:07;;;;;;;20.13;13.70;;;;;;;-145.63;100.00;61273.97;5062606;28;20057;-63
2023/12/27 07:33:37;;;;;;;22.02;13.90;;;;;;;-145.63;100.00;61273.97;5062729;28;20047;-63
2023/12/27 07:36:03;;;;;;;21.15;14.68;;;;;;;-145.63;100.00;61273.97;5063238;28;20045;-64
2023/12/27 07:38:28;;;;;;;22.02;14.88;;;;;;;-145.63;100.00;61273.97;5051405;28;20283;-63
2023/12/27 07:40:56;;;;;;;21.80;14.48;;;;;;;-145.63;100.00;61273.97;5048908;28;20070;-64
2023/12/27 07:43:22;;;;;;;21.67;14.73;;;;;;;-145.63;100.00;61273.97;5061360;28;20129;-64
2023/12/27 07:45:48;;;;;;;22.05;14.23;;;;;;;-145.63;100.00;61273.97;5059946;28;20047;-63
2023/12/27 07:48:14;;;;;;;22.95;14.52;;;;;;;-145.63;100.00;61273.97;5062401;28;20024;-63
2023/12/27 07:50:40;;;;;;;20.05;14.30;;;;;;;-145.63;100.00;61273.97;5062354;28;20404;-64
2023/12/27 07:53:06;;;;;;;21.33;15.00;;;;;;;-145.63;100.00;61273.97;5063784;28;20253;-64
2023/12/27 07:55:32;;;;;;;18.63;13.43;;;;;;;-145.63;100.00;61273.97;5062784;28;20029;-63
2023/12/27 07:57:57;;;;;;;17.85;12.85;;;;;;;-145.63;100.00;61273.97;5062444;28;20305;-63
2023/12/27 08:00:23;;;;;;;17.90;12.57;;;;;;;-145.63;100.00;61273.97;5061691;28;20093;-63
2023/12/27 08:02:49;;;;;;;18.33;13.38;;;;;;;-145.63;100.00;61273.97;5061565;28;20029;-62
2023/12/27 08:05:15;;;;;;;16.70;12.20;;;;;;;-145.63;100.00;61273.97;5061280;28;20025;-64
2023/12/27 08:07:42;;;;;;;19.45;13.23;;;;;;;-145.63;100.00;61273.97;5060978;28;20025;-64
2023/12/27 08:10:09;;;;;;;18.98;12.77;;;;;;;-145.63;100.00;61273.97;5060575;28;20021;-65
2023/12/27 08:12:35;;;;;;;18.58;12.70;;;;;;;-145.63;100.00;61273.97;5062637;28;20078;-63
2023/12/27 08:15:00;;;;;;;15.80;12.65;;;;;;;-145.63;100.00;61273.97;5058911;28;20036;-65
2023/12/27 08:17:26;;;;;;;17.90;12.88;;;;;;;-145.63;100.00;61273.97;5059074;28;20047;-65
2023/12/27 08:19:53;;;;;;;15.95;10.18;;;;;;;-145.63;100.00;61273.97;5061970;28;20088;-64
2023/12/27 08:22:20;;;;;;;14.85;9.63;;;;;;;-145.63;100.00;61273.97;5076460;28;20216;-65
2023/12/27 08:24:46;;;;;;;13.73;9.60;;;;;;;-145.63;100.00;61273.97;5060374;28;20059;-65
2023/12/27 08:27:12;;;;;;;15.95;9.90;;;;;;;-145.63;100.00;61273.97;5061887;28;20025;-65
2023/12/27 08:29:38;;;;;;;19.25;11.65;;;;;;;-145.63;100.00;61273.97;5074906;28;20036;-65
2023/12/27 08:32:04;;;;;;;17.45;11.13;;;;;;;-145.63;100.00;61273.97;5061457;28;20217;-65
2023/12/27 08:34:30;;;;;;;16.88;11.93;;;;;;;-145.63;100.00;61273.97;5061351;28;20036;-64
2023/12/27 08:36:55;;;;;;;18.33;12.15;;;;;;;-145.63;100.00;61273.97;5061708;28;20036;-65
2023/12/27 08:39:21;;;;;;;18.25;11.98;;;;;;;-145.63;100.00;61273.97;5060133;28;20124;-65
2023/12/27 08:41:47;;;;;;;19.90;14.00;;;;;;;-145.63;100.00;61273.97;5059837;28;20024;-64
2023/12/27 08:44:12;;;;;;;20.23;13.35;;;;;;;-145.63;100.00;61273.97;5061751;28;20016;-65
2023/12/27 08:46:39;;;;;;;19.38;13.70;;;;;;;-145.63;100.00;61273.97;5061539;28;20127;-66
2023/12/27 08:49:05;;;;;;;20.55;13.85;;;;;;;-145.63;100.00;61273.97;5061160;28;20035;-65
2023/12/27 08:51:30;;;;;;;21.73;14.25;;;;;;;-145.63;100.00;61273.97;5059035;28;20032;-66
2023/12/27 08:53:56;;;;;;;20.52;13.63;;;;;;;-145.63;100.00;61273.97;5060138;28;20021;-65
2023/12/27 08:56:22;;;;;;;20.33;13.57;;;;;;;-145.63;100.00;61273.97;5057896;28;20083;-66
2023/12/27 08:58:48;;;;;;;20.63;14.38;;;;;;;-145.63;100.00;61273.97;5057484;28;20032;-67
2023/12/27 09:01:13;;;;;;;20.65;14.25;;;;;;;-145.63;100.00;61273.97;5058031;28;20040;-65
2023/12/27 09:03:39;;;;;;;22.08;13.85;;;;;;;-145.63;100.00;61273.97;5061199;28;20104;-65
2023/12/27 09:06:05;;;;;;;19.35;13.55;;;;;;;-145.63;100.00;61273.97;5060307;28;20028;-66
2023/12/27 09:08:31;;;;;;;22.48;13.98;;;;;;;-145.63;100.00;61273.97;5059908;28;20025;-65
2023/12/27 09:10:56;;;;;;;19.73;14.00;;;;;;;-145.63;100.00;61273.97;5061410;28;20033;-65
2023/12/27 09:13:22;;;;;;;20.48;14.57;;;;;;;-145.63;100.00;61273.97;5061196;28;20024;-65
2023/12/27 09:15:48;;;;;;;22.52;15.90;;;;;;;-145.63;100.00;61273.97;5061660;28;20059;-66
2023/12/27 09:18:14;;;;;;;22.92;16.00;;;;;;;-145.63;100.00;61273.97;5060591;28;20094;-66
2023/12/27 09:20:39;;;;;;;23.00;15.38;;;;;;;-145.63;100.00;61273.97;5060065;28;20029;-67
2023/12/27 09:23:05;;;;;;;20.85;14.50;;;;;;;-145.63;100.00;61273.97;5061853;28;20020;-66
2023/12/27 09:25:30;;;;;;;19.60;14.30;;;;;;;-145.63;100.00;61273.97;5058906;28;20076;-67
2023/12/27 09:27:57;;;;;;;18.95;14.40;;;;;;;-145.63;100.00;61273.97;5059122;28;20098;-66
2023/12/27 09:30:22;;;;;;;23.58;15.75;;;;;;;-145.63;100.00;61273.97;5059408;28;20325;-66
2023/12/27 09:32:49;;;;;;;22.15;14.63;;;;;;;-145.63;100.00;61273.97;5060346;28;20029;-66
2023/12/27 09:35:15;;;;;;;20.05;14.60;;;;;;;-145.63;100.00;61273.97;5059740;28;20033;-65
2023/12/27 09:37:40;;;;;;;21.98;14.60;;;;;;;-145.63;100.00;61273.97;5061070;28;20021;-66
2023/12/27 09:40:06;;;;;;;20.75;14.98;;;;;;;-145.63;100.00;61273.97;5061380;28;20293;-66
2023/12/27 09:42:35;;;;;;;19.42;13.52;;;;;;;-145.63;100.00;61273.97;5061164;28;20021;-66
2023/12/27 09:45:06;;;;;;;19.98;13.77;;;;;;;-145.63;100.00;61273.97;5061354;28;20009;-67
2023/12/27 09:47:33;;;;;;;20.02;13.63;;;;;;;-145.63;100.00;61273.97;5061456;28;20017;-66
2023/12/27 09:50:01;;;;;;;17.52;10.77;;;;;;;-145.63;100.00;61273.97;5055232;28;20223;-66
2023/12/27 09:52:33;;;;;;;19.60;12.32;;;;;;;-145.63;100.00;61273.97;5063647;28;20099;-65
2023/12/27 09:54:59;;;;;;;19.40;12.50;;;;;;;-145.63;100.00;61273.97;5065152;28;20618;-68
2023/12/27 09:57:26;;;;;;;16.25;11.82;;;;;;;-145.63;100.00;61273.97;5065228;28;20049;-67
2023/12/27 09:59:55;;;;;;;15.82;10.93;;;;;;;-145.63;100.00;61273.97;5065185;28;20033;-66
2023/12/27 10:02:23;;;;;;;15.55;11.98;;;;;;;-145.63;100.00;61273.97;5064896;28;20081;-66
2023/12/27 10:04:51;;;;;;;16.15;10.13;;;;;;;-145.63;100.00;61273.97;5062789;28;20305;-66
2023/12/27 10:07:19;;;;;;;12.70;10.23;;;;;;;-145.63;100.00;61273.97;5064255;28;20024;-66
2023/12/27 10:09:46;;;;;;;15.93;11.25;;;;;;;-145.63;100.00;61273.97;5064965;28;20330;-65
2023/12/27 10:12:13;;;;;;;15.45;10.18;;;;;;;-145.63;100.00;61273.97;5061100;28;20032;-66
2023/12/27 10:14:41;;;;;;;13.85;10.48;;;;;;;-145.63;100.00;61273.97;5064533;28;20025;-66
2023/12/27 10:17:07;;;;;;;13.07;9.30;;;;;;;-145.63;100.00;61273.97;5061805;28;20252;-65
2023/12/27 10:19:45;;;;;;;13.05;9.02;;;;;;;-145.63;100.00;61273.97;5064467;28;20029;-66
2023/12/27 10:22:13;;;;;;;15.57;11.40;;;;;;;-145.63;100.00;61273.97;5063810;28;20033;-66
2023/12/27 10:24:39;;;;;;;22.08;12.32;;;;;;;-145.63;100.00;61273.97;5045167;28;20033;-66
2023/12/27 10:27:07;;;;;;;18.27;12.10;;;;;;;-145.63;100.00;61273.97;5060587;28;20344;-65
2023/12/27 10:29:33;;;;;;;21.20;13.38;;;;;;;-145.63;100.00;61273.97;5064822;28;20032;-67
2023/12/27 10:32:01;;;;;;;20.48;13.45;;;;;;;-145.63;100.00;61273.97;5058796;28;20233;-65
2023/12/27 10:34:27;;;;;;;19.58;13.30;;;;;;;-145.63;100.00;61273.97;5048272;28;20097;-66
2023/12/27 10:36:58;;;;;;;18.40;13.20;;;;;;;-145.63;100.00;61273.97;5070682;28;20047;-65
2023/12/27 10:39:24;;;;;;;19.48;13.00;;;;;;;-145.63;100.00;61273.97;5046860;28;20037;-65
2023/12/27 10:41:54;;;;;;;19.80;13.85;;;;;;;-145.63;100.00;61273.97;5057807;28;20033;-67
2023/12/27 10:44:20;;;;;;;21.38;15.02;;;;;;;-145.63;100.00;61273.97;5053601;28;20052;-66
2023/12/27 10:46:46;;;;;;;21.05;13.93;;;;;;;-145.63;100.00;61273.97;5063984;28;20028;-66
2023/12/27 10:49:13;;;;;;;19.58;12.85;;;;;;;-145.63;100.00;61273.97;5062957;28;20253;-66
2023/12/27 10:51:42;;;;;;;20.02;13.77;;;;;;;-145.63;100.00;61273.97;5060992;28;20032;-65